createdAt,value
2022-08-07T00:00:07.960Z,1.75
2022-08-07T00:02:41.034Z,2.33
2022-08-07T00:05:11.197Z,2.10
2022-08-07T00:07:40.627Z,2.28
2022-08-07T00:10:26.838Z,1.90
2022-08-07T00:13:00.635Z,2.00
2022-08-07T00:15:37.780Z,1.80
2022-08-07T00:18:05.760Z,2.00
2022-08-07T00:20:34.260Z,3.15
2022-08-07T00:23:01.604Z,2.10
2022-08-07T00:25:28.626Z,1.80
2022-08-07T00:28:04.525Z,1.88
2022-08-07T00:30:31.749Z,2.10
2022-08-07T00:33:00.951Z,1.92
2022-08-07T00:35:29.678Z,2.08
2022-08-07T00:37:57.627Z,2.00
2022-08-07T00:40:39.501Z,1.80
2022-08-07T00:44:00.821Z,4.13
2022-08-07T00:46:00.586Z,2.10
2022-08-07T00:48:32.077Z,2.08
2022-08-07T00:51:01.046Z,2.60
2022-08-07T00:53:39.182Z,3.15
2022-08-07T00:56:21.278Z,2.10
2022-08-07T00:58:49.806Z,2.08
2022-08-07T01:01:20.946Z,1.80
2022-08-07T01:03:56.861Z,1.52
2022-08-07T01:06:29.285Z,1.75
2022-08-07T01:08:59.346Z,1.95
2022-08-07T01:12:27.473Z,2.50
2022-08-07T01:14:28.592Z,2.53
2022-08-07T01:19:26.800Z,2.30
2022-08-07T01:21:55.425Z,3.63
2022-08-07T01:24:23.252Z,3.13
2022-08-07T01:26:54.569Z,3.90
2022-08-07T01:29:27.852Z,3.22
2022-08-07T01:31:59.404Z,3.20
2022-08-07T01:34:30.765Z,3.10
2022-08-07T01:36:58.701Z,3.65
2022-08-07T01:39:41.429Z,3.38
2022-08-07T01:42:39.936Z,3.38
2022-08-07T01:45:09.814Z,3.00
2022-08-07T01:48:18.365Z,2.90
2022-08-07T01:50:32.098Z,3.22
2022-08-07T01:53:01.081Z,2.95
2022-08-07T01:55:34.472Z,3.50
2022-08-07T01:58:29.287Z,3.47
2022-08-07T02:01:09.703Z,3.40
2022-08-07T02:03:50.241Z,2.80
2022-08-07T02:06:31.186Z,3.38
2022-08-07T02:09:03.792Z,4.00
2022-08-07T02:12:04.061Z,2.95
2022-08-07T02:14:36.291Z,2.83
2022-08-07T02:17:06.161Z,3.10
2022-08-07T02:20:06.780Z,2.88
2022-08-07T02:22:25.891Z,2.67
2022-08-07T02:24:56.147Z,2.83
2022-08-07T02:27:26.512Z,2.90
2022-08-07T02:30:07.430Z,2.50
2022-08-07T02:32:38.665Z,3.17
2022-08-07T02:36:28.182Z,2.80
2022-08-07T02:38:18.011Z,2.53
2022-08-07T02:40:55.296Z,2.78
2022-08-07T02:43:23.200Z,2.60
2022-08-07T02:45:59.408Z,3.10
2022-08-07T02:48:28.572Z,3.58
2022-08-07T02:50:57.353Z,2.65
2022-08-07T02:53:34.040Z,2.92
2022-08-07T02:56:17.641Z,2.97
2022-08-07T02:58:55.162Z,2.63
2022-08-07T03:01:36.084Z,2.78
2022-08-07T03:04:07.832Z,3.25
2022-08-07T03:06:42.168Z,2.70
2022-08-07T03:09:11.965Z,2.85
2022-08-07T03:11:52.361Z,2.63
2022-08-07T03:14:26.220Z,2.63
2022-08-07T03:16:56.504Z,2.45
2022-08-07T03:19:25.012Z,2.50
2022-08-07T03:21:56.688Z,2.30
2022-08-07T03:24:27.344Z,2.30
2022-08-07T03:27:00.313Z,2.80
2022-08-07T03:29:38.598Z,2.40
2022-08-07T03:32:14.368Z,2.10
2022-08-07T03:35:17.022Z,2.47
2022-08-07T03:37:45.982Z,2.25
2022-08-07T03:40:20.771Z,2.40
2022-08-07T03:42:53.560Z,1.95
2022-08-07T03:45:30.339Z,2.00
2022-08-07T03:47:59.658Z,2.25
2022-08-07T03:50:28.650Z,2.33
2022-08-07T03:52:59.515Z,2.10
2022-08-07T03:55:53.176Z,2.22
2022-08-07T03:59:04.641Z,2.58
2022-08-07T04:01:11.550Z,2.20
2022-08-07T04:03:49.629Z,2.50
2022-08-07T04:06:37.326Z,2.10
2022-08-07T04:09:05.773Z,2.38
2022-08-07T04:12:25.548Z,2.63
2022-08-07T04:14:38.694Z,2.70
2022-08-07T04:17:20.603Z,2.22
2022-08-07T04:19:56.076Z,2.42
2022-08-07T04:22:29.225Z,2.30
2022-08-07T04:24:58.748Z,2.50
2022-08-07T04:27:28.689Z,2.40
2022-08-07T04:30:05.030Z,2.42
2022-08-07T04:32:44.756Z,2.50
2022-08-07T04:35:14.714Z,2.33
2022-08-07T04:38:01.007Z,1.90
2022-08-07T04:40:30.079Z,2.35
2022-08-07T04:43:02.048Z,2.13
2022-08-07T04:45:57.296Z,2.33
2022-08-07T04:48:44.732Z,3.25
2022-08-07T04:51:33.107Z,2.10
2022-08-07T04:54:12.191Z,1.88
2022-08-07T04:58:14.299Z,2.17
2022-08-07T05:00:20.242Z,1.95
2022-08-07T05:04:00.590Z,2.00
2022-08-07T05:06:43.007Z,2.03
2022-08-07T05:09:27.983Z,2.25
2022-08-07T05:12:26.994Z,2.00
2022-08-07T05:15:21.701Z,2.10
2022-08-07T05:18:00.450Z,2.13
2022-08-07T05:20:42.905Z,2.67
2022-08-07T05:23:36.183Z,2.50
2022-08-07T05:26:13.787Z,2.25
2022-08-07T05:28:48.704Z,2.10
2022-08-07T05:31:19.854Z,1.90
2022-08-07T05:33:51.386Z,2.20
2022-08-07T05:36:35.225Z,2.15
2022-08-07T05:40:05.434Z,1.98
2022-08-07T05:42:01.469Z,1.88
2022-08-07T05:44:33.730Z,2.15
2022-08-07T05:47:01.852Z,2.03
2022-08-07T05:49:52.219Z,2.38
2022-08-07T05:52:20.257Z,2.70
2022-08-07T05:54:55.890Z,2.80
2022-08-07T05:57:30.282Z,2.20
2022-08-07T06:00:02.228Z,1.80
2022-08-07T06:02:33.197Z,1.80
2022-08-07T06:05:10.987Z,1.90
2022-08-07T06:08:14.430Z,1.80
2022-08-07T06:10:30.818Z,2.45
2022-08-07T06:13:02.249Z,1.85
2022-08-07T06:15:39.388Z,1.85
2022-08-07T06:18:12.074Z,1.90
2022-08-07T06:20:50.241Z,1.75
2022-08-07T06:24:37.160Z,1.83
2022-08-07T06:26:15.547Z,1.85
2022-08-07T06:28:54.391Z,1.70
2022-08-07T06:31:24.308Z,1.77
2022-08-07T06:34:05.767Z,2.63
2022-08-07T06:36:35.202Z,1.90
2022-08-07T06:40:15.721Z,3.10
2022-08-07T06:42:32.942Z,1.50
2022-08-07T06:45:03.761Z,2.03
2022-08-07T06:47:38.705Z,1.85
2022-08-07T06:50:15.585Z,2.20
2022-08-07T06:52:52.878Z,2.40
2022-08-07T06:55:32.877Z,1.52
2022-08-07T06:58:14.025Z,2.00
2022-08-07T07:00:45.597Z,1.65
2022-08-07T07:03:13.911Z,1.45
2022-08-07T07:06:03.343Z,1.50
2022-08-07T07:08:33.346Z,1.50
2022-08-07T07:11:13.958Z,1.33
2022-08-07T07:13:58.412Z,1.30
2022-08-07T07:16:44.980Z,1.45
2022-08-07T07:19:55.612Z,1.25
2022-08-07T07:22:36.788Z,1.45
2022-08-07T07:26:33.236Z,1.48
2022-08-07T07:28:42.560Z,1.02
2022-08-07T07:31:44.677Z,1.15
2022-08-07T07:34:19.701Z,1.13
2022-08-07T07:36:52.692Z,1.35
2022-08-07T07:39:25.461Z,1.60
2022-08-07T07:42:13.054Z,1.10
2022-08-07T07:44:45.620Z,1.10
2022-08-07T07:47:22.849Z,1.38
2022-08-07T07:50:36.312Z,1.75
2022-08-07T07:52:43.965Z,1.58
2022-08-07T07:55:17.987Z,0.85
2022-08-07T07:57:52.725Z,0.88
2022-08-07T08:00:28.950Z,1.00
2022-08-07T08:03:06.714Z,0.93
2022-08-07T08:05:50.531Z,1.10
2022-08-07T08:08:35.671Z,0.60
2022-08-07T08:11:16.569Z,0.90
2022-08-07T08:13:56.535Z,0.68
2022-08-07T08:16:40.119Z,0.95
2022-08-07T08:19:17.648Z,0.82
2022-08-07T08:22:19.784Z,0.75
2022-08-07T08:25:24.951Z,0.80
2022-08-07T08:28:05.962Z,0.77
2022-08-07T08:30:37.387Z,0.63
2022-08-07T08:33:16.926Z,0.60
2022-08-07T08:35:50.810Z,0.70
2022-08-07T08:38:29.433Z,0.60
2022-08-07T08:41:24.471Z,1.00
2022-08-07T08:44:29.210Z,1.10
2022-08-07T08:47:27.922Z,0.90
2022-08-07T08:50:34.964Z,1.45
2022-08-07T08:53:41.212Z,1.52
2022-08-07T08:56:16.683Z,1.23
2022-08-07T08:59:25.489Z,1.20
2022-08-07T09:02:35.275Z,1.00
2022-08-07T09:05:32.014Z,1.17
2022-08-07T09:08:32.229Z,1.17
2022-08-07T09:11:50.814Z,1.55
2022-08-07T09:14:38.974Z,1.08
2022-08-07T09:18:09.965Z,1.00
2022-08-07T09:21:03.917Z,0.73
2022-08-07T09:24:34.199Z,1.00
2022-08-07T09:27:09.073Z,0.55
2022-08-07T09:30:03.759Z,0.80
2022-08-07T09:33:24.070Z,0.80
2022-08-07T09:36:49.736Z,1.00
2022-08-07T09:39:54.901Z,0.70
2022-08-07T09:42:50.480Z,1.15
2022-08-07T09:47:25.245Z,0.88
2022-08-07T09:50:03.811Z,1.13
2022-08-07T09:52:35.255Z,1.40
2022-08-07T09:55:30.000Z,1.35
2022-08-07T09:58:42.642Z,0.80
2022-08-07T10:01:53.079Z,0.75
2022-08-07T10:04:54.977Z,1.05
2022-08-07T10:08:03.252Z,0.90
2022-08-07T10:11:17.233Z,0.75
2022-08-07T10:14:38.674Z,0.70
2022-08-07T10:18:02.599Z,0.63
2022-08-07T10:21:00.534Z,0.57
2022-08-07T10:24:05.845Z,0.90
2022-08-07T10:27:12.266Z,0.90
2022-08-07T10:30:07.170Z,0.70
2022-08-07T10:33:06.055Z,0.95
2022-08-07T10:36:37.689Z,0.80
2022-08-07T10:40:03.493Z,0.68
2022-08-07T10:43:05.740Z,0.63
2022-08-07T10:45:44.998Z,0.95
2022-08-07T10:49:13.710Z,0.40
2022-08-07T10:52:13.134Z,0.70
2022-08-07T10:55:01.512Z,0.73
2022-08-07T10:57:38.863Z,0.50
2022-08-07T11:00:36.965Z,0.55
2022-08-07T11:05:24.246Z,0.30
2022-08-07T11:08:02.993Z,0.70
2022-08-07T11:10:52.398Z,0.50
2022-08-07T11:21:32.614Z,0.68
2022-08-07T11:24:51.792Z,0.57
2022-08-07T11:28:01.968Z,0.55
2022-08-07T11:30:29.095Z,0.50
2022-08-07T11:33:48.715Z,0.60
2022-08-07T11:36:58.089Z,0.60
2022-08-07T11:40:08.067Z,0.93
2022-08-07T11:43:18.800Z,0.90
2022-08-07T11:46:54.289Z,1.00
2022-08-07T11:50:31.489Z,0.70
2022-08-07T11:53:27.642Z,0.90
2022-08-07T11:56:26.718Z,1.20
2022-08-07T12:00:10.897Z,1.10
2022-08-07T12:02:52.265Z,1.85
2022-08-07T12:05:49.051Z,1.40
2022-08-07T12:08:42.631Z,1.15
2022-08-07T12:11:32.602Z,0.60
2022-08-07T12:14:13.282Z,1.55
2022-08-07T12:17:19.868Z,0.77
2022-08-07T12:20:08.822Z,0.90
2022-08-07T12:22:59.451Z,1.10
2022-08-07T12:26:03.390Z,1.10
2022-08-07T12:29:16.122Z,1.00
2022-08-07T12:32:03.938Z,0.77
2022-08-07T12:34:35.982Z,1.05
2022-08-07T12:37:08.734Z,0.65
2022-08-07T12:39:50.969Z,0.40
2022-08-07T12:42:27.969Z,0.40
2022-08-07T12:44:58.694Z,1.10
2022-08-07T12:48:27.501Z,0.60
2022-08-07T12:51:13.166Z,0.70
2022-08-07T12:54:38.448Z,0.80
2022-08-07T12:57:10.060Z,0.80
2022-08-07T12:59:54.227Z,0.60
2022-08-07T13:02:50.826Z,0.35
2022-08-07T13:06:01.795Z,0.90
2022-08-07T13:09:12.642Z,0.90
2022-08-07T13:12:28.760Z,1.00
2022-08-07T13:15:31.903Z,1.00
2022-08-07T13:18:56.992Z,1.48
2022-08-07T13:21:50.522Z,2.22
2022-08-07T13:24:52.444Z,1.30
2022-08-07T13:28:05.716Z,1.98
2022-08-07T13:30:40.196Z,1.42
2022-08-07T13:34:33.539Z,1.40
2022-08-07T13:36:40.429Z,1.05
2022-08-07T13:39:28.522Z,1.25
2022-08-07T13:42:19.170Z,0.85
2022-08-07T13:45:11.648Z,1.40
2022-08-07T13:48:06.585Z,0.68
2022-08-07T13:50:45.232Z,1.75
2022-08-07T13:53:35.891Z,1.27
2022-08-07T13:56:20.436Z,1.40
2022-08-07T13:59:05.591Z,0.80
2022-08-07T14:01:55.434Z,0.90
2022-08-07T14:04:35.759Z,1.55
2022-08-07T14:07:10.049Z,1.00
2022-08-07T14:10:02.332Z,0.80
2022-08-07T14:12:57.520Z,0.57
2022-08-07T14:15:42.505Z,1.10
2022-08-07T14:18:30.749Z,0.63
2022-08-07T14:22:00.967Z,0.80
2022-08-07T14:24:28.418Z,0.80
2022-08-07T14:28:09.183Z,0.80
2022-08-07T14:30:12.368Z,0.80
2022-08-07T14:32:46.155Z,1.02
2022-08-07T14:35:45.377Z,0.80
2022-08-07T14:38:26.781Z,0.70
2022-08-07T14:41:14.671Z,0.60
2022-08-07T14:43:57.782Z,0.85
2022-08-07T14:46:32.409Z,0.73
2022-08-07T14:49:56.170Z,0.93
2022-08-07T14:52:03.220Z,0.88
2022-08-07T14:54:41.770Z,1.13
2022-08-07T14:57:19.286Z,0.93
2022-08-07T15:00:05.438Z,1.40
2022-08-07T15:02:37.388Z,1.10
2022-08-07T15:05:20.140Z,1.00
2022-08-07T15:07:52.331Z,1.05
2022-08-07T15:10:29.587Z,1.20
2022-08-07T15:13:05.707Z,0.90
2022-08-07T15:15:43.943Z,0.70
2022-08-07T15:18:45.274Z,0.85
2022-08-07T15:21:58.474Z,0.70
2022-08-07T15:25:12.892Z,0.90
2022-08-07T15:27:25.010Z,0.80
2022-08-07T15:30:08.843Z,0.88
2022-08-07T15:32:50.815Z,1.90
2022-08-07T15:36:00.563Z,0.95
2022-08-07T15:38:32.971Z,0.82
2022-08-07T15:44:16.677Z,1.00
2022-08-07T15:50:06.057Z,0.77
2022-08-07T15:52:30.563Z,1.10
2022-08-07T15:55:03.382Z,0.63
2022-08-07T15:57:47.449Z,0.70
2022-08-07T16:00:31.696Z,0.90
2022-08-07T16:03:06.678Z,1.10
2022-08-07T16:05:52.566Z,0.70
2022-08-07T16:08:31.124Z,1.10
2022-08-07T16:11:28.828Z,0.52
2022-08-07T16:14:17.162Z,0.57
2022-08-07T16:16:57.008Z,0.60
2022-08-07T16:19:42.072Z,0.90
2022-08-07T16:22:56.029Z,1.00
2022-08-07T16:25:55.474Z,0.70
2022-08-07T16:30:07.440Z,0.95
2022-08-07T16:31:49.985Z,1.20
2022-08-07T16:34:59.147Z,0.70
2022-08-07T16:38:06.586Z,0.80
2022-08-07T16:41:05.628Z,0.98
2022-08-07T16:44:47.400Z,0.90
2022-08-07T16:47:51.383Z,1.13
2022-08-07T16:50:39.173Z,1.10
2022-08-07T16:54:01.382Z,0.93
2022-08-07T16:58:00.777Z,1.20
2022-08-07T17:00:29.273Z,0.98
2022-08-07T17:03:17.187Z,0.90
2022-08-07T17:06:29.768Z,1.00
2022-08-07T17:10:07.382Z,1.17
2022-08-07T17:12:45.202Z,1.02
2022-08-07T17:15:15.660Z,1.10
2022-08-07T17:17:47.584Z,1.10
2022-08-07T17:20:49.625Z,1.83
2022-08-07T17:23:50.428Z,1.25
2022-08-07T17:26:30.717Z,1.42
2022-08-07T17:30:15.191Z,1.42
2022-08-07T17:32:29.996Z,3.15
2022-08-07T17:35:49.557Z,1.58
2022-08-07T17:38:05.602Z,2.00
2022-08-07T17:40:56.466Z,1.23
2022-08-07T17:44:00.840Z,2.38
2022-08-07T17:46:47.109Z,1.33
2022-08-07T17:49:30.168Z,1.10
2022-08-07T17:52:19.487Z,1.27
2022-08-07T17:54:55.533Z,1.27
2022-08-07T17:57:58.596Z,1.33
2022-08-07T18:00:48.828Z,1.08
2022-08-07T18:04:03.695Z,2.97
2022-08-07T18:06:38.285Z,1.27
2022-08-07T18:09:08.735Z,1.52
2022-08-07T18:12:19.349Z,1.60
2022-08-07T18:15:33.020Z,1.67
2022-08-07T18:21:01.245Z,1.77
2022-08-07T18:21:51.572Z,1.48
2022-08-07T18:24:28.396Z,1.38
2022-08-07T18:27:21.054Z,2.05
2022-08-07T18:30:05.654Z,2.58
2022-08-07T18:33:11.004Z,1.77
2022-08-07T18:36:32.613Z,1.70
2022-08-07T18:40:05.051Z,1.30
2022-08-07T18:42:28.921Z,1.80
2022-08-07T18:45:40.162Z,2.10
2022-08-07T18:50:05.841Z,1.73
2022-08-07T18:52:34.250Z,2.42
2022-08-07T18:54:49.669Z,1.88
2022-08-07T18:57:59.579Z,1.40
2022-08-07T19:00:55.167Z,1.73
2022-08-07T19:04:02.994Z,1.70
2022-08-07T19:06:57.907Z,2.38
2022-08-07T19:09:55.246Z,1.50
2022-08-07T19:12:53.685Z,1.65
2022-08-07T19:16:04.906Z,1.90
2022-08-07T19:18:57.085Z,1.50
2022-08-07T19:21:51.102Z,1.88
2022-08-07T19:24:50.226Z,1.65
2022-08-07T19:28:30.033Z,1.60
2022-08-07T19:31:05.966Z,7.07
2022-08-07T19:33:10.319Z,6.00
2022-08-07T19:35:46.819Z,1.70
2022-08-07T19:38:17.850Z,1.90
2022-08-07T19:40:50.198Z,2.08
2022-08-07T19:43:43.623Z,1.67
2022-08-07T19:46:26.826Z,1.83
2022-08-07T19:49:05.803Z,1.50
2022-08-07T19:51:50.718Z,1.80
2022-08-07T19:54:32.104Z,2.03
2022-08-07T19:58:01.165Z,1.73
2022-08-07T20:00:02.340Z,1.70
2022-08-07T20:02:53.625Z,1.83
2022-08-07T20:05:28.104Z,1.70
2022-08-07T20:08:04.563Z,1.92
2022-08-07T20:10:54.558Z,1.70
2022-08-07T20:13:53.042Z,1.98
2022-08-07T20:16:35.435Z,1.70
2022-08-07T20:19:10.466Z,2.45
2022-08-07T20:21:47.635Z,2.15
2022-08-07T20:24:30.133Z,2.25
2022-08-07T20:27:02.344Z,1.90
2022-08-07T20:29:49.346Z,2.25
2022-08-07T20:32:39.828Z,2.08
2022-08-07T20:35:26.034Z,2.00
2022-08-07T20:37:59.650Z,2.22
2022-08-07T20:40:34.306Z,2.67
2022-08-07T20:43:14.874Z,2.10
2022-08-07T20:46:26.962Z,2.28
2022-08-07T20:48:42.217Z,2.63
2022-08-07T20:51:30.723Z,2.00
2022-08-07T20:54:11.863Z,2.53
2022-08-07T20:56:46.281Z,2.30
2022-08-07T21:00:05.153Z,2.42
2022-08-07T21:02:32.706Z,2.13
2022-08-07T21:05:10.334Z,2.15
2022-08-07T21:07:49.553Z,3.05
2022-08-07T21:10:29.773Z,2.33
2022-08-07T21:13:03.214Z,2.28
2022-08-07T21:15:58.290Z,2.28
2022-08-07T21:18:30.389Z,2.10
2022-08-07T21:21:01.836Z,2.67
2022-08-07T21:23:58.849Z,2.00
2022-08-07T21:26:42.932Z,2.20
2022-08-07T21:29:30.827Z,2.08
2022-08-07T21:32:47.402Z,4.28
2022-08-07T21:36:06.686Z,3.30
2022-08-07T21:39:01.945Z,2.30
2022-08-07T21:42:37.791Z,2.10
2022-08-07T21:46:08.413Z,2.42
2022-08-07T21:48:48.195Z,3.65
2022-08-07T21:51:32.337Z,2.47
2022-08-07T21:54:46.240Z,2.60
2022-08-07T21:57:39.308Z,2.40
2022-08-07T22:00:22.031Z,2.67
2022-08-07T22:02:59.188Z,2.60
2022-08-07T22:05:45.227Z,2.38
2022-08-07T22:08:21.007Z,2.38
2022-08-07T22:10:55.091Z,2.47
2022-08-07T22:13:51.037Z,2.20
2022-08-07T22:16:42.880Z,2.33
2022-08-07T22:19:39.130Z,2.42
2022-08-07T22:22:20.858Z,2.88
2022-08-07T22:25:11.006Z,2.40
2022-08-07T22:28:08.308Z,2.30
2022-08-07T22:31:45.444Z,2.10
2022-08-07T22:34:38.447Z,2.08
2022-08-07T22:38:02.748Z,1.98
2022-08-07T22:40:51.398Z,2.40
2022-08-07T22:43:31.469Z,2.38
2022-08-07T22:46:46.793Z,1.90
2022-08-07T22:49:51.758Z,2.20
2022-08-07T22:52:57.018Z,2.50
2022-08-07T22:55:52.780Z,2.30
2022-08-07T22:59:02.778Z,1.98
2022-08-07T23:01:59.000Z,1.98
2022-08-07T23:04:32.987Z,2.10
2022-08-07T23:07:41.805Z,1.85
2022-08-07T23:10:37.797Z,2.58
2022-08-07T23:13:48.956Z,1.83
2022-08-07T23:16:55.518Z,2.15
2022-08-07T23:20:03.207Z,1.90
2022-08-07T23:24:06.670Z,1.92
2022-08-07T23:26:26.178Z,2.17
2022-08-07T23:30:35.866Z,1.80
2022-08-07T23:34:36.420Z,2.25
2022-08-07T23:36:03.820Z,2.25
2022-08-07T23:38:54.477Z,2.55
2022-08-07T23:42:21.972Z,2.35
2022-08-07T23:45:00.857Z,2.10
2022-08-07T23:48:10.803Z,2.08
2022-08-07T23:51:00.735Z,2.47
2022-08-07T23:53:53.582Z,2.25
2022-08-07T23:56:54.006Z,1.95
